createdAt,value
2022-11-16T00:01:52.395Z,30.63
2022-11-16T00:04:38.374Z,36.70
2022-11-16T00:07:24.400Z,34.00
2022-11-16T00:10:11.305Z,30.13
2022-11-16T00:12:57.160Z,32.40
2022-11-16T00:15:42.535Z,33.80
2022-11-16T00:18:28.736Z,27.20
2022-11-16T00:21:14.635Z,37.22
2022-11-16T00:24:00.545Z,38.40
2022-11-16T00:26:47.395Z,40.47
2022-11-16T00:29:32.997Z,38.47
2022-11-16T00:32:18.532Z,42.80
2022-11-16T00:35:04.274Z,48.83
2022-11-16T00:37:52.053Z,45.28
2022-11-16T00:40:37.705Z,47.13
2022-11-16T00:43:24.756Z,48.22
2022-11-16T00:46:10.277Z,53.40
2022-11-16T00:48:56.360Z,49.67
2022-11-16T00:51:42.394Z,56.72
2022-11-16T00:54:28.713Z,51.55
2022-11-16T00:57:14.316Z,50.30
2022-11-16T01:00:00.461Z,47.65
2022-11-16T01:02:45.932Z,46.40
2022-11-16T01:05:31.957Z,49.22
2022-11-16T01:08:17.672Z,51.50
2022-11-16T01:11:22.424Z,47.10
2022-11-16T01:14:09.504Z,48.28
2022-11-16T01:16:55.181Z,48.53
2022-11-16T01:19:41.308Z,52.38
2022-11-16T01:28:57.592Z,49.45
2022-11-16T01:31:43.816Z,45.63
2022-11-16T01:34:29.433Z,46.15
2022-11-16T01:37:22.262Z,45.03
2022-11-16T01:40:09.991Z,44.78
2022-11-16T01:42:57.207Z,41.75
2022-11-16T01:45:42.863Z,38.92
2022-11-16T01:48:31.513Z,39.38
2022-11-16T01:51:17.948Z,41.22
2022-11-16T01:54:07.654Z,40.55
2022-11-16T01:56:56.882Z,39.92
2022-11-16T01:59:55.365Z,37.50
2022-11-16T02:02:43.311Z,40.65
2022-11-16T02:06:01.235Z,34.05
2022-11-16T02:09:11.904Z,33.28
2022-11-16T02:12:25.239Z,36.80
2022-11-16T02:15:26.369Z,36.13
2022-11-16T02:19:08.532Z,36.25
2022-11-16T02:22:19.974Z,36.50
2022-11-16T02:25:15.013Z,35.10
2022-11-16T02:28:29.009Z,36.53
2022-11-16T02:31:18.745Z,37.75
2022-11-16T02:34:08.877Z,34.55
2022-11-16T02:36:58.267Z,34.33
2022-11-16T02:39:46.488Z,32.70
2022-11-16T02:42:43.955Z,36.33
2022-11-16T02:45:34.041Z,31.50
2022-11-16T02:48:23.982Z,31.83
2022-11-16T02:51:11.152Z,33.90
2022-11-16T02:54:18.116Z,34.65
2022-11-16T02:57:07.476Z,33.30
2022-11-16T02:59:57.235Z,32.33
2022-11-16T03:03:12.886Z,34.38
2022-11-16T03:06:04.779Z,40.45
2022-11-16T03:09:05.878Z,37.17
2022-11-16T03:12:00.865Z,38.97
2022-11-16T03:14:53.858Z,42.92
2022-11-16T03:17:46.124Z,42.45
2022-11-16T03:20:34.102Z,41.85
2022-11-16T03:23:20.384Z,42.08
2022-11-16T03:26:08.604Z,38.55
2022-11-16T03:29:08.508Z,41.33
2022-11-16T03:32:02.478Z,39.72
2022-11-16T03:35:11.496Z,37.40
2022-11-16T03:37:59.861Z,40.67
2022-11-16T03:40:47.708Z,38.28
2022-11-16T03:43:35.100Z,38.15
2022-11-16T03:46:22.332Z,37.33
2022-11-16T03:49:09.495Z,35.55
2022-11-16T03:51:58.097Z,34.60
2022-11-16T03:54:43.868Z,31.38
2022-11-16T03:57:30.332Z,31.20
2022-11-16T04:00:18.870Z,31.90
2022-11-16T04:03:04.470Z,33.30
2022-11-16T04:06:08.261Z,29.45
2022-11-16T04:09:09.917Z,29.67
2022-11-16T04:12:16.151Z,31.55
2022-11-16T04:15:20.345Z,29.17
2022-11-16T04:18:24.453Z,32.13
2022-11-16T04:21:56.496Z,30.05
2022-11-16T04:24:49.824Z,31.17
2022-11-16T04:27:55.433Z,33.80
2022-11-16T04:31:07.379Z,39.25
2022-11-16T04:34:12.897Z,44.58
2022-11-16T04:37:22.629Z,45.85
2022-11-16T04:40:09.327Z,44.38
2022-11-16T04:43:03.429Z,46.60
2022-11-16T04:46:11.827Z,49.17
2022-11-16T04:48:59.013Z,51.17
2022-11-16T04:51:44.548Z,48.17
2022-11-16T04:54:30.220Z,50.90
2022-11-16T04:57:16.364Z,45.33
2022-11-16T05:00:05.688Z,45.03
2022-11-16T05:02:55.654Z,45.97
2022-11-16T05:05:49.157Z,47.38
2022-11-16T05:08:35.375Z,44.28
2022-11-16T05:11:22.292Z,47.83
2022-11-16T05:14:10.503Z,46.67
2022-11-16T05:16:57.416Z,42.95
2022-11-16T05:20:01.665Z,47.78
2022-11-16T05:22:54.696Z,42.50
2022-11-16T05:25:41.959Z,39.22
2022-11-16T05:28:29.789Z,37.42
2022-11-16T05:31:16.276Z,40.63
2022-11-16T05:34:01.904Z,39.10
2022-11-16T05:36:47.406Z,39.28
2022-11-16T05:39:32.997Z,33.78
2022-11-16T05:42:18.847Z,34.65
2022-11-16T05:45:05.235Z,31.00
2022-11-16T05:47:51.572Z,30.60
2022-11-16T05:50:42.585Z,28.02
2022-11-16T05:53:36.423Z,28.27
2022-11-16T05:56:23.541Z,25.65
2022-11-16T05:59:16.769Z,24.70
2022-11-16T06:02:04.961Z,21.75
2022-11-16T06:04:52.055Z,23.83
2022-11-16T06:07:40.956Z,18.02
2022-11-16T06:10:26.741Z,17.30
2022-11-16T06:13:13.057Z,15.18
2022-11-16T06:16:01.223Z,17.40
2022-11-16T06:18:48.819Z,19.75
2022-11-16T06:21:35.572Z,17.42
2022-11-16T06:24:23.692Z,17.40
2022-11-16T06:27:10.381Z,16.95
2022-11-16T06:29:56.592Z,18.05
2022-11-16T06:32:42.725Z,17.42
2022-11-16T06:35:28.776Z,19.85
2022-11-16T06:38:18.617Z,20.80
2022-11-16T06:41:06.349Z,20.88
2022-11-16T06:43:58.098Z,20.67
2022-11-16T06:46:49.705Z,20.13
2022-11-16T06:49:35.147Z,22.42
2022-11-16T06:52:26.470Z,21.95
2022-11-16T06:55:12.135Z,23.88
2022-11-16T06:57:57.610Z,25.55
2022-11-16T07:00:43.705Z,23.13
2022-11-16T07:03:31.933Z,23.50
2022-11-16T07:06:20.712Z,24.02
2022-11-16T07:09:06.895Z,24.17
2022-11-16T07:11:52.632Z,24.75
2022-11-16T07:14:40.030Z,23.13
2022-11-16T07:17:28.053Z,23.17
2022-11-16T07:20:14.156Z,26.45
2022-11-16T07:23:01.293Z,26.48
2022-11-16T07:25:47.629Z,24.67
2022-11-16T07:28:46.712Z,22.42
2022-11-16T07:34:46.916Z,26.48
2022-11-16T07:37:35.048Z,26.38
2022-11-16T07:40:21.738Z,25.58
2022-11-16T07:43:08.478Z,19.30
2022-11-16T07:46:49.055Z,22.08
2022-11-16T07:49:27.072Z,23.63
2022-11-16T07:52:16.338Z,17.40
2022-11-16T07:55:20.468Z,17.67
2022-11-16T07:58:09.655Z,18.67
2022-11-16T08:00:55.699Z,17.45
2022-11-16T08:03:42.922Z,18.13
2022-11-16T08:06:30.586Z,15.75
2022-11-16T08:09:16.577Z,20.70
2022-11-16T08:12:02.181Z,16.20
2022-11-16T08:14:53.667Z,16.63
2022-11-16T08:17:39.535Z,17.05
2022-11-16T08:20:28.928Z,18.20
2022-11-16T08:23:14.978Z,19.50
2022-11-16T08:26:03.816Z,18.25
2022-11-16T08:28:51.425Z,17.23
2022-11-16T08:31:45.024Z,16.30
2022-11-16T08:34:34.124Z,20.42
2022-11-16T08:37:20.336Z,19.35
2022-11-16T08:40:07.531Z,20.17
2022-11-16T08:42:57.707Z,19.63
2022-11-16T08:45:48.136Z,22.75
2022-11-16T08:48:35.545Z,20.10
2022-11-16T08:51:21.471Z,18.77
2022-11-16T08:54:14.594Z,22.42
2022-11-16T08:57:01.866Z,22.05
2022-11-16T08:59:49.869Z,20.00
2022-11-16T09:02:35.931Z,19.77
2022-11-16T09:05:22.921Z,20.70
2022-11-16T09:08:10.660Z,20.27
2022-11-16T09:10:58.904Z,19.08
2022-11-16T09:13:45.904Z,19.35
2022-11-16T09:16:31.453Z,19.02
2022-11-16T09:19:17.797Z,22.33
2022-11-16T09:22:04.001Z,18.95
2022-11-16T09:24:49.965Z,19.85
2022-11-16T09:27:36.364Z,20.50
2022-11-16T09:30:22.150Z,17.23
2022-11-16T09:33:07.814Z,19.08
2022-11-16T09:35:53.512Z,19.88
2022-11-16T09:39:19.130Z,17.63
2022-11-16T09:42:19.784Z,23.58
2022-11-16T09:45:19.895Z,15.40
2022-11-16T09:48:09.216Z,18.83
2022-11-16T09:50:58.748Z,14.85
2022-11-16T09:54:16.779Z,17.33
2022-11-16T09:57:12.146Z,14.52
2022-11-16T10:00:04.448Z,13.38
2022-11-16T10:03:11.421Z,14.50
2022-11-16T10:06:03.344Z,14.18
2022-11-16T10:08:52.089Z,25.83
2022-11-16T10:11:46.990Z,12.93
2022-11-16T10:14:47.783Z,13.23
2022-11-16T10:17:51.718Z,15.80
2022-11-16T10:21:03.578Z,14.43
2022-11-16T10:24:13.708Z,15.15
2022-11-16T10:27:29.956Z,14.77
2022-11-16T10:30:19.995Z,16.75
2022-11-16T10:33:11.407Z,19.80
2022-11-16T10:35:58.268Z,15.20
2022-11-16T10:38:44.511Z,14.52
2022-11-16T10:41:40.413Z,15.27
2022-11-16T10:44:38.286Z,20.55
2022-11-16T10:47:51.922Z,18.42
2022-11-16T10:50:42.314Z,16.60
2022-11-16T10:53:33.151Z,19.98
2022-11-16T10:56:42.638Z,16.70
2022-11-16T10:59:44.988Z,15.90
2022-11-16T11:02:37.295Z,19.67
2022-11-16T11:05:23.110Z,19.85
2022-11-16T11:08:12.040Z,17.75
2022-11-16T11:11:24.924Z,15.38
2022-11-16T11:14:14.453Z,15.98
2022-11-16T11:17:12.268Z,18.13
2022-11-16T11:20:22.887Z,18.38
2022-11-16T11:23:18.278Z,22.40
2022-11-16T11:26:05.155Z,15.80
2022-11-16T11:29:41.273Z,21.33
2022-11-16T11:32:41.464Z,18.17
2022-11-16T11:35:32.884Z,18.60
2022-11-16T11:38:18.759Z,22.95
2022-11-16T11:41:07.161Z,18.40
2022-11-16T11:44:03.489Z,16.90
2022-11-16T11:47:42.312Z,20.08
2022-11-16T11:54:00.221Z,15.55
2022-11-16T11:56:46.212Z,17.15
2022-11-16T11:59:32.023Z,16.55
2022-11-16T12:02:52.561Z,16.65
2022-11-16T12:05:57.603Z,18.73
2022-11-16T12:08:46.644Z,19.35
2022-11-16T12:11:50.439Z,23.30
2022-11-16T12:14:51.805Z,20.15
2022-11-16T12:17:43.598Z,18.50
2022-11-16T12:20:36.664Z,24.33
2022-11-16T12:23:22.284Z,21.02
2022-11-16T12:26:46.769Z,23.58
2022-11-16T12:29:40.867Z,23.13
2022-11-16T12:32:57.380Z,28.42
2022-11-16T12:35:50.029Z,27.13
2022-11-16T12:38:58.588Z,25.63
2022-11-16T12:42:02.535Z,25.83
2022-11-16T12:47:39.459Z,18.75
2022-11-16T12:50:50.113Z,22.38
2022-11-16T12:53:54.703Z,20.33
2022-11-16T12:56:52.633Z,21.05
2022-11-16T12:59:56.784Z,18.73
2022-11-16T13:03:30.453Z,20.33
2022-11-16T13:06:27.082Z,21.90
2022-11-16T13:09:23.322Z,21.48
2022-11-16T13:12:17.184Z,20.92
2022-11-16T13:15:03.550Z,23.55
2022-11-16T13:18:00.077Z,18.80
2022-11-16T13:20:58.792Z,19.95
2022-11-16T13:24:05.752Z,18.88
2022-11-16T13:27:28.980Z,19.08
2022-11-16T13:30:19.875Z,22.33
2022-11-16T13:33:39.345Z,21.00
2022-11-16T13:36:45.676Z,23.10
2022-11-16T13:39:50.448Z,22.42
2022-11-16T13:42:43.791Z,18.25
2022-11-16T13:45:34.990Z,19.17
2022-11-16T13:48:35.348Z,17.88
2022-11-16T13:51:23.165Z,14.20
2022-11-16T13:57:33.625Z,14.73
2022-11-16T14:00:35.381Z,9.70
2022-11-16T14:03:20.778Z,12.68
2022-11-16T14:06:27.452Z,9.15
2022-11-16T14:09:45.405Z,10.85
2022-11-16T14:12:53.908Z,9.45
2022-11-16T14:15:39.853Z,13.23
2022-11-16T14:18:36.975Z,13.40
2022-11-16T14:21:24.546Z,13.40
2022-11-16T14:24:49.686Z,14.63
2022-11-16T14:27:57.340Z,20.50
2022-11-16T14:31:10.346Z,22.60
2022-11-16T14:33:58.442Z,18.55
2022-11-16T14:36:46.815Z,22.60
2022-11-16T14:39:32.261Z,19.15
2022-11-16T14:42:38.044Z,25.10
2022-11-16T14:45:37.149Z,24.10
2022-11-16T14:48:28.048Z,25.77
2022-11-16T14:51:20.031Z,21.60
2022-11-16T14:54:16.530Z,19.60
2022-11-16T14:57:05.312Z,16.73
2022-11-16T15:00:19.445Z,15.93
2022-11-16T15:03:06.574Z,12.05
2022-11-16T15:05:52.199Z,10.60
2022-11-16T15:08:45.325Z,11.60
2022-11-16T15:12:00.888Z,10.00
2022-11-16T15:14:56.922Z,11.02
2022-11-16T15:17:46.551Z,11.77
2022-11-16T15:20:34.478Z,9.85
2022-11-16T15:23:20.609Z,9.35
2022-11-16T15:26:06.413Z,10.18
2022-11-16T15:28:52.340Z,10.43
2022-11-16T15:31:41.644Z,13.43
2022-11-16T15:34:27.496Z,26.15
2022-11-16T15:37:15.197Z,17.45
2022-11-16T15:40:03.256Z,15.10
2022-11-16T15:42:49.153Z,17.00
2022-11-16T15:45:36.488Z,13.75
2022-11-16T15:48:24.493Z,14.88
2022-11-16T15:51:23.094Z,11.60
2022-11-16T15:54:54.579Z,15.40
2022-11-16T15:57:45.504Z,7.40
2022-11-16T16:00:35.170Z,5.93
2022-11-16T16:03:22.586Z,4.10
2022-11-16T16:06:15.357Z,43.67
2022-11-16T16:09:05.844Z,6.65
2022-11-16T16:12:10.971Z,7.82
2022-11-16T16:15:22.388Z,8.95
2022-11-16T16:18:39.312Z,12.10
2022-11-16T16:21:26.468Z,7.50
2022-11-16T16:24:34.632Z,15.77
2022-11-16T16:27:25.842Z,16.55
2022-11-16T16:30:14.662Z,12.93
2022-11-16T16:33:01.050Z,13.00
2022-11-16T16:35:49.742Z,14.85
2022-11-16T16:38:35.407Z,16.42
2022-11-16T16:41:24.313Z,12.57
2022-11-16T16:44:15.228Z,11.93
2022-11-16T16:47:00.893Z,14.43
2022-11-16T16:49:47.164Z,13.95
2022-11-16T16:52:33.162Z,10.18
2022-11-16T16:55:18.810Z,16.50
2022-11-16T16:58:04.823Z,11.68
2022-11-16T17:00:50.729Z,14.35
2022-11-16T17:03:36.910Z,17.33
2022-11-16T17:06:23.460Z,20.45
2022-11-16T17:09:08.747Z,12.57
2022-11-16T17:11:54.073Z,11.23
2022-11-16T17:14:39.758Z,11.90
2022-11-16T17:17:25.983Z,20.15
2022-11-16T17:20:11.894Z,12.02
2022-11-16T17:22:58.020Z,13.55
2022-11-16T17:25:44.341Z,11.50
2022-11-16T17:28:30.061Z,11.63
2022-11-16T17:31:15.646Z,15.95
2022-11-16T17:34:01.444Z,15.88
2022-11-16T17:36:47.096Z,16.38
2022-11-16T17:39:32.704Z,17.50
2022-11-16T17:42:18.588Z,15.27
2022-11-16T17:45:04.838Z,19.73
2022-11-16T17:47:50.256Z,19.33
2022-11-16T17:50:35.828Z,18.55
2022-11-16T17:53:21.553Z,25.55
2022-11-16T17:56:07.916Z,20.02
2022-11-16T17:58:55.104Z,23.58
2022-11-16T18:01:40.793Z,17.60
2022-11-16T18:04:26.582Z,20.60
2022-11-16T18:07:12.249Z,22.52
2022-11-16T18:09:57.848Z,23.35
2022-11-16T18:12:43.619Z,28.13
2022-11-16T18:15:29.346Z,24.58
2022-11-16T18:18:16.709Z,27.83
2022-11-16T18:21:02.576Z,24.75
2022-11-16T18:23:48.207Z,23.80
2022-11-16T18:26:33.794Z,23.23
2022-11-16T18:29:19.417Z,25.33
2022-11-16T18:32:05.125Z,29.85
2022-11-16T18:34:51.250Z,24.50
2022-11-16T18:37:36.797Z,24.80
2022-11-16T18:40:22.531Z,25.02
2022-11-16T18:43:14.589Z,24.67
2022-11-16T18:46:00.900Z,25.13
2022-11-16T18:48:46.891Z,24.95
2022-11-16T18:51:33.206Z,24.05
2022-11-16T18:54:18.788Z,22.55
2022-11-16T18:57:04.611Z,22.70
2022-11-16T18:59:50.417Z,26.60
2022-11-16T19:02:36.249Z,29.65
2022-11-16T19:05:21.989Z,22.30
2022-11-16T19:08:08.764Z,22.13
2022-11-16T19:10:55.193Z,21.38
2022-11-16T19:13:42.104Z,23.70
2022-11-16T19:16:27.660Z,23.63
2022-11-16T19:19:13.233Z,25.98
2022-11-16T19:21:58.712Z,22.48
2022-11-16T19:24:44.806Z,22.42
2022-11-16T19:27:32.519Z,23.15
2022-11-16T19:30:18.618Z,24.33
2022-11-16T19:33:04.579Z,28.52
2022-11-16T19:35:50.337Z,27.25
2022-11-16T19:38:36.472Z,27.77
2022-11-16T19:41:23.063Z,30.77
2022-11-16T19:44:08.596Z,27.73
2022-11-16T19:46:56.799Z,26.80
2022-11-16T19:49:42.473Z,28.50
2022-11-16T19:52:28.055Z,31.33
2022-11-16T19:55:14.263Z,29.98
2022-11-16T19:58:00.166Z,25.25
2022-11-16T20:00:45.888Z,31.50
2022-11-16T20:03:31.873Z,27.60
2022-11-16T20:06:38.925Z,29.10
2022-11-16T20:09:24.617Z,26.58
2022-11-16T20:12:10.248Z,22.55
2022-11-16T20:14:55.883Z,20.65
2022-11-16T20:17:41.529Z,20.42
2022-11-16T20:20:27.195Z,22.30
2022-11-16T20:23:15.706Z,19.05
2022-11-16T20:26:05.988Z,19.63
2022-11-16T20:28:52.576Z,28.08
2022-11-16T20:31:42.361Z,29.02
2022-11-16T20:34:28.436Z,37.03
2022-11-16T20:37:13.856Z,32.35
2022-11-16T20:39:59.426Z,28.20
2022-11-16T20:42:46.660Z,21.77
2022-11-16T20:45:34.431Z,25.80
2022-11-16T20:48:20.256Z,21.65
2022-11-16T20:51:07.623Z,20.63
2022-11-16T20:53:53.790Z,21.25
2022-11-16T20:56:39.645Z,22.35
2022-11-16T20:59:25.397Z,18.83
2022-11-16T21:02:11.628Z,17.10
2022-11-16T21:05:00.283Z,22.98
2022-11-16T21:07:46.256Z,18.33
2022-11-16T21:10:35.468Z,23.85
2022-11-16T21:13:40.114Z,19.38
2022-11-16T21:16:25.663Z,19.75
2022-11-16T21:19:11.838Z,22.58
2022-11-16T21:21:57.483Z,22.33
2022-11-16T21:24:43.290Z,18.02
2022-11-16T21:27:28.953Z,19.52
2022-11-16T21:30:14.849Z,18.55
2022-11-16T21:33:00.321Z,19.08
2022-11-16T21:35:46.076Z,23.67
2022-11-16T21:38:32.047Z,22.17
2022-11-16T21:41:19.947Z,20.42
2022-11-16T21:44:05.486Z,22.80
2022-11-16T21:46:51.144Z,21.98
2022-11-16T21:49:54.215Z,21.35
2022-11-16T21:52:42.849Z,26.17
2022-11-16T21:55:28.591Z,20.45
2022-11-16T21:58:14.262Z,19.85
2022-11-16T22:01:02.193Z,19.73
2022-11-16T22:04:08.509Z,19.63
2022-11-16T22:07:12.821Z,23.58
2022-11-16T22:09:58.584Z,20.33
2022-11-16T22:12:44.150Z,28.27
2022-11-16T22:15:30.398Z,29.88
2022-11-16T22:18:16.000Z,30.30
2022-11-16T22:21:02.877Z,30.25
2022-11-16T22:23:48.789Z,25.75
2022-11-16T22:26:34.275Z,26.55
2022-11-16T22:29:19.937Z,26.38
2022-11-16T22:32:05.695Z,20.75
2022-11-16T22:34:51.443Z,21.85
2022-11-16T22:37:37.099Z,20.75
2022-11-16T22:40:22.541Z,24.77
2022-11-16T22:43:08.233Z,20.88
2022-11-16T22:45:58.992Z,21.92
2022-11-16T22:48:45.047Z,20.83
2022-11-16T22:51:31.109Z,18.30
2022-11-16T22:54:16.994Z,18.77
2022-11-16T22:57:03.280Z,22.40
2022-11-16T22:59:49.116Z,23.40
2022-11-16T23:02:34.643Z,23.80
2022-11-16T23:05:20.373Z,24.02
2022-11-16T23:08:06.109Z,23.35
2022-11-16T23:11:20.281Z,23.52
2022-11-16T23:14:28.010Z,23.25
2022-11-16T23:17:13.624Z,24.25
2022-11-16T23:20:18.053Z,23.55
2022-11-16T23:23:22.002Z,20.95
2022-11-16T23:26:41.238Z,23.77
2022-11-16T23:29:26.852Z,22.35
2022-11-16T23:32:12.368Z,19.63
2022-11-16T23:34:58.173Z,22.17
2022-11-16T23:37:57.928Z,20.20
2022-11-16T23:40:43.473Z,21.20
2022-11-16T23:43:47.548Z,21.20
2022-11-16T23:46:33.993Z,21.67
2022-11-16T23:49:19.574Z,18.27
2022-11-16T23:52:05.444Z,24.75
2022-11-16T23:54:50.970Z,21.15
2022-11-16T23:57:36.689Z,23.40
